Time;durP1;ratioP1;P1;durP2;ratioP2;P2;SDS_P1;SDS_P2;PMS_P1;PMS_P2;Temp;Humidity;BMP_temperature;BMP_pressure;BME280_temperature;BME280_humidity;BME280_pressure;Samples;Min_cycle;Max_cycle;Signal;HPM_P1;HPM_P2
2022/04/25 00:01:17;;;;;;;2.13;1.77;;;8.30;99.90;;;;;;4913739;29;20052;-50
2022/04/25 00:03:45;;;;;;;2.92;1.83;;;8.30;99.90;;;;;;4915896;29;20513;-49
2022/04/25 00:06:12;;;;;;;2.88;1.80;;;8.30;99.90;;;;;;4916034;29;20103;-50
2022/04/25 00:08:38;;;;;;;2.50;1.95;;;8.30;99.90;;;;;;4915687;29;20445;-52
2022/04/25 00:11:05;;;;;;;3.90;2.30;;;8.30;99.90;;;;;;4912324;29;20044;-49
2022/04/25 00:13:32;;;;;;;3.25;2.30;;;8.30;99.90;;;;;;4898726;29;20378;-53
2022/04/25 00:16:00;;;;;;;3.90;2.45;;;8.30;99.90;;;;;;4915854;29;20525;-49
2022/04/25 00:18:27;;;;;;;3.90;2.13;;;8.30;99.90;;;;;;4908210;29;20040;-48
2022/04/25 00:20:55;;;;;;;2.35;2.08;;;8.30;99.90;;;;;;4915167;29;20044;-49
2022/04/25 00:23:23;;;;;;;2.88;2.58;;;8.30;99.90;;;;;;4915492;29;20048;-50
2022/04/25 00:25:50;;;;;;;3.40;2.50;;;8.30;99.90;;;;;;4912507;29;20044;-51
2022/04/25 00:28:17;;;;;;;4.13;2.80;;;8.30;99.90;;;;;;4914128;29;20052;-49
2022/04/25 00:30:44;;;;;;;4.78;2.97;;;8.40;99.90;;;;;;4914982;29;20060;-48
2022/04/25 00:33:10;;;;;;;3.08;2.70;;;8.30;99.90;;;;;;4915494;29;20111;-51
2022/04/25 00:35:37;;;;;;;3.15;2.20;;;8.40;99.90;;;;;;4910113;29;20043;-49
2022/04/25 00:38:04;;;;;;;5.55;3.10;;;8.40;99.90;;;;;;4915460;29;20513;-49
2022/04/25 00:40:31;;;;;;;4.25;3.20;;;8.40;99.90;;;;;;4914883;29;20055;-49
2022/04/25 00:42:58;;;;;;;4.75;3.58;;;8.40;99.90;;;;;;4912999;29;20118;-49
2022/04/25 00:45:25;;;;;;;4.78;3.63;;;8.40;99.90;;;;;;4914789;29;20051;-49
2022/04/25 00:47:52;;;;;;;5.75;3.97;;;8.40;99.90;;;;;;4915306;29;20508;-50
2022/04/25 00:50:19;;;;;;;5.10;3.65;;;8.40;99.90;;;;;;4912413;29;20052;-49
2022/04/25 00:52:45;;;;;;;6.43;3.92;;;8.40;99.90;;;;;;4915012;29;20501;-50
2022/04/25 00:55:12;;;;;;;6.63;4.40;;;8.40;99.90;;;;;;4915237;29;20044;-52
2022/04/25 00:57:39;;;;;;;5.35;3.15;;;8.30;99.90;;;;;;4913757;29;20099;-49
2022/04/25 01:00:11;;;;;;;6.78;3.70;;;8.40;99.90;;;;;;4911513;29;20048;-49
2022/04/25 01:02:39;;;;;;;5.00;2.75;;;8.40;99.90;;;;;;4914328;29;20051;-48
2022/04/25 01:05:07;;;;;;;3.85;2.88;;;8.40;99.90;;;;;;4914543;29;20052;-50
2022/04/25 01:07:36;;;;;;;3.67;2.88;;;8.40;99.90;;;;;;4913192;29;20478;-49
2022/04/25 01:10:08;;;;;;;5.00;2.75;;;8.40;99.90;;;;;;4914327;29;20405;-48
2022/04/25 01:12:35;;;;;;;4.40;3.13;;;8.40;99.90;;;;;;4915222;29;20051;-49
2022/04/25 01:15:08;;;;;;;6.60;3.28;;;8.40;99.90;;;;;;4910629;29;20044;-50
2022/04/25 01:17:35;;;;;;;3.47;3.10;;;8.40;99.90;;;;;;4908363;29;20114;-50
2022/04/25 01:20:04;;;;;;;3.22;2.53;;;8.40;99.90;;;;;;4914712;29;20499;-49
2022/04/25 01:22:36;;;;;;;2.97;2.33;;;8.40;99.90;;;;;;4915175;29;20096;-49
2022/04/25 01:27:48;;;;;;;4.45;1.13;;;8.40;99.90;;;;;;4914847;29;20059;-49
2022/04/25 01:30:14;;;;;;;1.00;0.85;;;8.40;99.90;;;;;;4914607;29;20056;-50
2022/04/25 01:32:41;;;;;;;0.75;0.75;;;8.40;99.90;;;;;;4913660;29;20051;-49
2022/04/25 01:35:08;;;;;;;1.00;0.70;;;8.40;99.90;;;;;;4912163;29;20079;-49
2022/04/25 01:37:35;;;;;;;0.98;0.75;;;8.40;99.90;;;;;;4914982;29;20055;-50
2022/04/25 01:40:02;;;;;;;4.20;0.88;;;8.40;99.90;;;;;;4914491;29;20048;-51
2022/04/25 01:42:29;;;;;;;1.23;0.95;;;8.40;99.90;;;;;;4912316;29;20040;-50
2022/04/25 01:44:56;;;;;;;2.40;0.93;;;8.40;99.90;;;;;;4910845;29;20036;-49
2022/04/25 01:47:23;;;;;;;1.45;0.63;;;8.30;99.90;;;;;;4914768;29;20056;-51
2022/04/25 01:49:50;;;;;;;0.80;0.60;;;8.20;99.90;;;;;;4914369;29;20096;-49
2022/04/25 01:52:19;;;;;;;0.50;0.40;;;8.20;99.90;;;;;;4906348;29;20532;-49
2022/04/25 01:54:47;;;;;;;2.88;0.50;;;8.20;99.90;;;;;;4914585;29;20048;-49
2022/04/25 01:57:14;;;;;;;4.20;0.60;;;8.30;99.90;;;;;;4915939;29;20044;-50
2022/04/25 01:59:41;;;;;;;0.38;0.30;;;8.30;99.90;;;;;;4913908;29;20040;-49
2022/04/25 02:02:08;;;;;;;0.30;0.20;;;8.30;99.90;;;;;;4917820;29;20048;-52
2022/04/25 02:04:35;;;;;;;0.30;0.30;;;8.30;99.90;;;;;;4918135;29;20524;-50
2022/04/25 02:07:01;;;;;;;1.35;0.30;;;8.30;99.90;;;;;;4918124;29;20561;-49
2022/04/25 02:09:34;;;;;;;2.30;0.40;;;8.30;99.90;;;;;;4914128;29;20055;-49
2022/04/25 02:12:01;;;;;;;0.20;0.20;;;8.30;99.90;;;;;;4917746;29;20103;-50
2022/04/25 02:14:31;;;;;;;0.50;0.30;;;8.30;99.90;;;;;;4918043;29;20453;-49
2022/04/25 02:16:59;;;;;;;0.20;0.13;;;8.20;99.90;;;;;;4914791;29;20127;-52
2022/04/25 02:19:28;;;;;;;0.38;0.20;;;8.20;99.90;;;;;;4917252;29;20040;-50
2022/04/25 02:21:56;;;;;;;0.15;0.15;;;8.20;99.90;;;;;;4917576;29;20538;-49
2022/04/25 02:24:23;;;;;;;0.47;0.38;;;8.20;99.90;;;;;;4917804;29;20040;-48
2022/04/25 02:26:50;;;;;;;1.55;0.30;;;8.20;99.90;;;;;;4914380;29;20041;-48
2022/04/25 02:29:20;;;;;;;0.43;0.28;;;8.20;99.90;;;;;;4916229;29;20063;-50
2022/04/25 02:31:47;;;;;;;0.75;0.57;;;8.30;99.90;;;;;;4917405;29;20050;-49
2022/04/25 02:34:14;;;;;;;0.38;0.30;;;8.20;99.90;;;;;;4917707;29;20049;-48
2022/04/25 02:36:40;;;;;;;0.57;0.20;;;8.20;99.90;;;;;;4913884;29;20044;-48
2022/04/25 02:39:07;;;;;;;0.50;0.43;;;8.20;99.90;;;;;;4917231;29;20048;-50
2022/04/25 02:41:34;;;;;;;0.40;0.20;;;8.10;99.90;;;;;;4926543;23;20821;-56
2022/04/25 02:44:00;;;;;;;0.80;0.30;;;8.10;99.90;;;;;;4915566;29;20047;-54
2022/04/25 02:46:27;;;;;;;0.35;0.30;;;8.10;99.90;;;;;;4928295;29;20048;-53
2022/04/25 02:48:55;;;;;;;0.95;0.20;;;8.10;99.90;;;;;;4932647;29;20043;-54
2022/04/25 02:51:23;;;;;;;0.63;0.30;;;8.10;99.90;;;;;;4915547;29;20051;-54
2022/04/25 02:53:50;;;;;;;0.95;0.30;;;8.20;99.90;;;;;;4916797;29;20056;-53
2022/04/25 02:56:17;;;;;;;0.57;0.30;;;8.20;99.90;;;;;;4917258;29;20048;-53
2022/04/25 02:58:43;;;;;;;1.42;0.40;;;8.20;99.90;;;;;;4912827;29;20140;-52
2022/04/25 03:01:10;;;;;;;0.47;0.30;;;8.20;99.90;;;;;;4913940;29;20128;-52
2022/04/25 03:03:38;;;;;;;1.23;0.30;;;8.20;99.90;;;;;;4917103;29;20040;-53
2022/04/25 03:06:07;;;;;;;0.63;0.30;;;8.20;99.90;;;;;;4917021;29;20059;-54
2022/04/25 03:08:34;;;;;;;0.40;0.30;;;8.10;99.90;;;;;;4908514;29;20040;-52
2022/04/25 03:11:07;;;;;;;0.70;0.30;;;8.10;99.90;;;;;;4916339;29;20040;-52
2022/04/25 03:13:35;;;;;;;0.40;0.30;;;8.10;99.90;;;;;;4916861;29;20056;-54
2022/04/25 03:16:02;;;;;;;;;;;8.10;99.90;;;;;;4917269;29;20104;-52
2022/04/25 03:18:30;;;;;;;0.30;0.20;;;8.10;99.90;;;;;;4915373;29;20299;-53
2022/04/25 03:20:57;;;;;;;0.40;0.22;;;8.10;99.90;;;;;;4916210;29;20508;-53
2022/04/25 03:23:25;;;;;;;0.85;0.40;;;8.10;99.90;;;;;;4916753;29;20091;-54
2022/04/25 03:25:52;;;;;;;1.88;0.50;;;8.10;99.90;;;;;;4913592;29;20115;-52
2022/04/25 03:28:19;;;;;;;0.47;0.20;;;8.10;99.90;;;;;;4915326;29;20036;-55
2022/04/25 03:30:46;;;;;;;;;;;8.10;99.90;;;;;;4916629;29;20052;-52
2022/04/25 03:33:13;;;;;;;0.40;0.38;;;8.10;99.90;;;;;;4916622;29;19923;-52
2022/04/25 03:35:40;;;;;;;0.47;0.40;;;8.10;99.90;;;;;;4913901;29;20059;-53
2022/04/25 03:38:08;;;;;;;0.75;0.50;;;8.10;99.90;;;;;;4916323;29;20052;-55
2022/04/25 03:40:36;;;;;;;0.30;0.30;;;8.00;99.90;;;;;;4915617;29;20048;-52
2022/04/25 03:43:06;;;;;;;0.52;0.40;;;8.00;99.90;;;;;;4911154;29;20044;-55
2022/04/25 03:45:34;;;;;;;1.52;0.50;;;8.00;99.90;;;;;;4916353;29;20115;-54
2022/04/25 03:48:02;;;;;;;0.95;0.50;;;8.00;99.90;;;;;;4916398;29;20037;-52
2022/04/25 03:50:33;;;;;;;0.77;0.40;;;8.00;99.90;;;;;;4913472;29;20062;-53
2022/04/25 03:53:11;;;;;;;0.52;0.50;;;8.00;99.90;;;;;;4912278;29;20060;-54
2022/04/25 03:58:23;;;;;;;5.28;1.02;;;8.00;99.90;;;;;;4897337;29;19923;-52
2022/04/25 04:00:50;;;;;;;0.88;0.80;;;8.00;99.90;;;;;;4902725;29;20036;-52
2022/04/25 04:03:18;;;;;;;1.02;0.77;;;8.00;99.90;;;;;;4915806;29;20553;-52
2022/04/25 04:05:50;;;;;;;2.08;0.98;;;8.10;99.90;;;;;;4915857;29;20055;-53
2022/04/25 04:08:17;;;;;;;2.85;1.55;;;8.10;99.90;;;;;;4915979;29;20485;-52
2022/04/25 04:10:44;;;;;;;3.35;2.47;;;8.10;99.90;;;;;;4914397;29;20052;-53
2022/04/25 04:13:11;;;;;;;4.10;2.88;;;8.10;99.90;;;;;;4915750;29;20048;-50
2022/04/25 04:15:38;;;;;;;3.80;2.70;;;8.10;99.90;;;;;;4915575;29;20067;-52
2022/04/25 04:18:05;;;;;;;4.10;3.17;;;8.10;99.90;;;;;;4915120;29;20651;-53
2022/04/25 04:20:33;;;;;;;2.92;2.33;;;8.20;99.90;;;;;;4910467;29;20052;-55
2022/04/25 04:23:00;;;;;;;1.95;1.17;;;8.20;99.90;;;;;;4915291;29;20070;-56
2022/04/25 04:25:27;;;;;;;1.20;0.73;;;8.20;99.90;;;;;;4915011;29;20036;-53
2022/04/25 04:27:54;;;;;;;1.27;0.85;;;8.20;99.90;;;;;;4915323;29;20040;-53
2022/04/25 04:30:20;;;;;;;0.90;0.68;;;8.20;99.90;;;;;;4913828;29;20056;-54
2022/04/25 04:32:48;;;;;;;0.95;0.63;;;8.20;99.90;;;;;;4897911;29;20060;-51
2022/04/25 04:36:17;;;;;;;1.15;0.80;;;8.20;99.90;;;;;;4915228;29;20048;-55
2022/04/25 04:38:05;;;;;;;0.80;0.68;;;8.20;99.90;;;;;;4912811;29;20524;-53
2022/04/25 04:40:33;;;;;;;1.48;0.82;;;8.20;99.90;;;;;;4912005;29;20037;-55
2022/04/25 04:43:01;;;;;;;0.93;0.60;;;8.20;99.90;;;;;;4914582;29;20051;-53
2022/04/25 04:45:28;;;;;;;0.93;0.73;;;8.20;99.90;;;;;;4914974;29;20107;-53
2022/04/25 04:47:55;;;;;;;1.15;0.60;;;8.10;99.90;;;;;;4909693;29;20107;-52
2022/04/25 04:50:22;;;;;;;0.70;0.60;;;8.10;99.90;;;;;;4914214;29;20055;-52
2022/04/25 04:52:57;;;;;;;0.88;0.68;;;8.10;99.90;;;;;;4914938;29;20071;-53
2022/04/25 04:55:25;;;;;;;5.38;0.80;;;8.10;99.90;;;;;;4912944;29;20080;-52
2022/04/25 04:57:52;;;;;;;;;;;8.20;99.90;;;;;;4915002;29;20044;-53
2022/04/25 05:00:19;;;;;;;0.90;0.80;;;8.30;99.90;;;;;;4914504;29;19938;-53
2022/04/25 05:02:46;;;;;;;;;;;8.30;99.90;;;;;;4896223;29;20045;-56
2022/04/25 05:05:13;;;;;;;1.23;1.00;;;8.30;99.90;;;;;;4912719;29;20287;-52
2022/04/25 05:07:41;;;;;;;2.22;1.48;;;8.40;99.90;;;;;;4914974;29;20052;-55
2022/04/25 05:10:08;;;;;;;1.92;1.30;;;8.40;99.90;;;;;;4913639;29;20536;-55
2022/04/25 05:12:45;;;;;;;;;;;8.50;99.90;;;;;;4912814;29;20052;-54
2022/04/25 05:15:13;;;;;;;3.17;2.22;;;8.50;99.90;;;;;;4913079;29;20311;-55
2022/04/25 05:17:42;;;;;;;4.22;1.98;;;8.60;99.90;;;;;;4914451;29;20483;-54
2022/04/25 05:20:12;;;;;;;1.70;1.02;;;8.60;99.90;;;;;;4912009;29;20044;-52
2022/04/25 05:22:46;;;;;;;2.40;1.33;;;8.60;99.90;;;;;;4914036;29;20044;-56
2022/04/25 05:25:17;;;;;;;3.28;1.40;;;8.60;99.90;;;;;;4914624;29;20040;-57
2022/04/25 05:27:53;;;;;;;1.63;1.20;;;8.60;99.90;;;;;;4911451;29;20047;-55
2022/04/25 05:30:22;;;;;;;1.92;1.20;;;8.70;99.90;;;;;;4913521;29;20287;-56
2022/04/25 05:32:49;;;;;;;3.33;2.17;;;8.70;99.90;;;;;;4914712;29;20052;-53
2022/04/25 05:35:17;;;;;;;2.67;1.40;;;8.60;99.90;;;;;;4918253;29;20044;-55
2022/04/25 05:37:45;;;;;;;2.70;1.20;;;8.70;99.90;;;;;;4915155;29;20040;-52
2022/04/25 05:40:13;;;;;;;2.33;1.50;;;8.80;99.90;;;;;;4916273;29;20044;-53
2022/04/25 05:42:42;;;;;;;2.08;1.02;;;8.80;99.90;;;;;;4917126;29;20087;-56
2022/04/25 05:45:10;;;;;;;0.70;0.60;;;8.80;99.90;;;;;;4914346;29;20043;-56
2022/04/25 05:47:37;;;;;;;1.25;0.80;;;8.90;99.90;;;;;;4916962;29;20047;-53
2022/04/25 05:52:52;;;;;;;0.77;0.40;;;9.00;99.90;;;;;;4912641;29;20071;-53
2022/04/25 05:55:19;;;;;;;0.50;0.50;;;9.10;99.90;;;;;;4917212;29;20044;-54
2022/04/25 05:57:45;;;;;;;1.05;0.50;;;9.20;99.90;;;;;;4918252;29;20048;-53
2022/04/25 06:00:14;;;;;;;1.00;0.90;;;9.20;99.90;;;;;;4916623;29;20446;-53
2022/04/25 06:02:43;;;;;;;1.90;0.90;;;9.30;99.90;;;;;;4911969;29;20040;-53
2022/04/25 06:05:11;;;;;;;1.20;0.70;;;9.30;99.90;;;;;;4917272;29;20072;-53
2022/04/25 06:07:41;;;;;;;1.02;0.70;;;9.40;99.90;;;;;;4918092;29;20493;-52
2022/04/25 06:10:08;;;;;;;2.08;0.75;;;9.40;99.90;;;;;;4911499;29;20041;-52
2022/04/25 06:12:50;;;;;;;1.58;1.00;;;9.30;99.90;;;;;;4917705;29;20044;-52
2022/04/25 06:15:18;;;;;;;1.50;1.13;;;9.30;99.90;;;;;;4917952;29;20048;-52
2022/04/25 06:17:50;;;;;;;1.13;0.73;;;9.30;99.90;;;;;;4910681;29;20502;-52
2022/04/25 06:20:17;;;;;;;1.20;0.80;;;9.40;99.90;;;;;;4915901;29;20497;-54
2022/04/25 06:22:56;;;;;;;18.88;8.07;;;9.40;99.90;;;;;;4917787;29;20055;-54
2022/04/25 06:25:25;;;;;;;3.17;2.10;;;9.40;99.90;;;;;;4917526;29;20051;-52
2022/04/25 06:27:52;;;;;;;4.00;2.78;;;9.50;99.90;;;;;;4916496;29;20044;-54
2022/04/25 06:30:23;;;;;;;5.45;3.35;;;9.50;99.90;;;;;;4917148;29;20040;-52
2022/04/25 06:32:51;;;;;;;12.43;4.95;;;9.50;99.90;;;;;;4917409;29;20044;-53
2022/04/25 06:35:20;;;;;;;10.65;6.70;;;9.60;99.90;;;;;;4917612;29;20099;-54
2022/04/25 06:37:48;;;;;;;12.23;7.60;;;9.70;99.90;;;;;;4914978;29;20063;-55
2022/04/25 06:40:16;;;;;;;7.93;6.10;;;9.80;99.90;;;;;;4916932;29;20044;-53
2022/04/25 06:42:43;;;;;;;8.73;6.13;;;9.90;99.90;;;;;;4913807;29;20049;-55
2022/04/25 06:45:09;;;;;;;6.07;3.25;;;10.00;99.90;;;;;;4913941;29;20052;-55
2022/04/25 06:47:36;;;;;;;3.83;1.63;;;9.90;99.90;;;;;;4917212;29;20040;-55
2022/04/25 06:50:03;;;;;;;2.10;1.50;;;9.80;99.90;;;;;;4915852;29;20044;-53
2022/04/25 06:52:30;;;;;;;4.65;3.30;;;10.00;99.90;;;;;;4914132;29;20048;-55
2022/04/25 06:54:58;;;;;;;2.53;2.17;;;10.00;99.90;;;;;;4916437;29;20501;-53
2022/04/25 06:57:25;;;;;;;2.63;1.70;;;10.00;99.90;;;;;;4910981;29;20115;-55
2022/04/25 06:59:51;;;;;;;3.22;1.45;;;10.10;99.90;;;;;;4909708;29;20056;-53
2022/04/25 07:02:18;;;;;;;2.40;1.77;;;10.00;99.90;;;;;;4915887;29;20382;-54
2022/04/25 07:04:46;;;;;;;2.58;1.88;;;9.90;99.90;;;;;;4914263;29;20361;-53
2022/04/25 07:07:13;;;;;;;3.80;1.98;;;10.00;99.90;;;;;;4914872;29;20147;-54
2022/04/25 07:09:40;;;;;;;3.15;2.30;;;10.00;99.90;;;;;;4911140;29;20072;-52
2022/04/25 07:12:07;;;;;;;1.67;1.10;;;10.10;99.90;;;;;;4915258;29;20051;-53
2022/04/25 07:14:34;;;;;;;1.40;1.10;;;10.10;99.90;;;;;;4914087;29;20056;-55
2022/04/25 07:17:03;;;;;;;1.30;0.93;;;10.30;99.90;;;;;;4915493;29;20044;-55
2022/04/25 07:19:31;;;;;;;2.47;1.85;;;10.50;99.90;;;;;;4910594;29;20043;-54
2022/04/25 07:30:15;;;;;;;2.92;2.15;;;11.10;99.90;;;;;;4910473;29;20045;-53
2022/04/25 07:32:42;;;;;;;3.67;2.78;;;11.20;99.90;;;;;;4916190;29;20131;-55
2022/04/25 07:35:10;;;;;;;3.45;2.35;;;11.20;99.90;;;;;;4912357;29;20509;-54
2022/04/25 07:37:36;;;;;;;3.53;2.78;;;11.10;99.90;;;;;;4915627;29;20040;-56
2022/04/25 07:40:08;;;;;;;5.53;3.58;;;11.10;99.90;;;;;;4912240;29;20048;-52
2022/04/25 07:42:36;;;;;;;4.45;3.33;;;11.10;99.90;;;;;;4898781;29;20461;-55
2022/04/25 07:45:03;;;;;;;4.57;3.47;;;11.20;99.90;;;;;;4908505;29;20096;-53
2022/04/25 07:47:31;;;;;;;5.03;3.50;;;11.40;99.90;;;;;;4908798;29;20040;-56
2022/04/25 07:49:59;;;;;;;5.15;3.30;;;11.50;99.90;;;;;;4912668;29;20052;-53
2022/04/25 07:52:25;;;;;;;5.40;3.85;;;11.70;99.90;;;;;;4915131;29;20107;-58
2022/04/25 07:54:54;;;;;;;4.35;3.53;;;11.70;99.90;;;;;;4910012;29;20054;-53
2022/04/25 07:57:24;;;;;;;5.47;3.78;;;11.70;99.90;;;;;;4915098;29;20047;-54
2022/04/25 07:59:51;;;;;;;6.13;4.00;;;11.70;99.90;;;;;;4909876;29;20051;-55
2022/04/25 08:02:18;;;;;;;6.03;3.72;;;11.70;99.90;;;;;;4895155;29;20044;-54
2022/04/25 08:04:45;;;;;;;5.82;3.15;;;11.70;99.90;;;;;;4912571;29;20051;-55
2022/04/25 08:07:13;;;;;;;4.15;3.30;;;11.90;99.90;;;;;;4914407;29;20040;-55
2022/04/25 08:09:40;;;;;;;4.97;3.63;;;12.50;99.90;;;;;;4910955;29;20501;-54
2022/04/25 08:20:23;;;;;;;4.57;2.90;;;12.70;99.90;;;;;;4907218;29;20043;-55
2022/04/25 08:22:50;;;;;;;3.50;2.50;;;12.70;99.90;;;;;;4914391;29;20434;-52
2022/04/25 08:25:18;;;;;;;3.33;2.60;;;12.70;99.90;;;;;;4910019;29;20036;-53
2022/04/25 08:27:44;;;;;;;4.97;3.25;;;12.80;99.90;;;;;;4914630;29;20497;-53
2022/04/25 08:30:14;;;;;;;4.45;2.53;;;12.70;99.90;;;;;;4907149;29;20078;-54
2022/04/25 08:32:41;;;;;;;4.40;2.72;;;12.70;99.90;;;;;;4914796;29;20441;-53
2022/04/25 08:35:11;;;;;;;3.00;1.67;;;12.50;99.90;;;;;;4909992;29;20048;-52
2022/04/25 08:37:37;;;;;;;1.92;1.50;;;12.40;99.90;;;;;;4912636;29;20048;-54
2022/04/25 08:40:05;;;;;;;2.63;1.70;;;12.40;99.90;;;;;;4908654;29;20088;-54
2022/04/25 08:42:32;;;;;;;3.67;1.67;;;12.50;99.90;;;;;;4911820;29;20036;-55
2022/04/25 08:45:14;;;;;;;2.55;1.83;;;12.50;99.90;;;;;;4897553;29;20104;-55
2022/04/25 08:47:47;;;;;;;2.75;2.13;;;12.70;99.90;;;;;;4913450;29;20040;-53
2022/04/25 08:50:18;;;;;;;3.53;2.17;;;12.70;99.90;;;;;;4908638;29;20052;-55
2022/04/25 08:52:46;;;;;;;2.40;1.80;;;12.80;99.90;;;;;;4911626;29;20051;-55
2022/04/25 08:55:14;;;;;;;1.42;1.33;;;13.20;99.90;;;;;;4909085;29;20519;-52
2022/04/25 08:57:45;;;;;;;3.42;2.10;;;13.40;99.90;;;;;;4911749;29;20076;-55
2022/04/25 09:00:15;;;;;;;2.28;1.83;;;13.50;99.90;;;;;;4918484;23;20052;-52
2022/04/25 09:02:44;;;;;;;3.30;2.38;;;13.70;99.90;;;;;;4871542;29;20045;-52
2022/04/25 09:05:12;;;;;;;2.55;2.13;;;13.80;99.90;;;;;;4895171;29;20585;-49
2022/04/25 09:07:40;;;;;;;2.33;1.40;;;14.00;99.90;;;;;;4893172;29;20048;-49
2022/04/25 09:10:13;;;;;;;1.55;1.10;;;14.00;99.90;;;;;;4872692;29;20602;-50
2022/04/25 09:12:42;;;;;;;1.88;1.40;;;13.90;99.90;;;;;;4880907;29;20499;-50
2022/04/25 09:15:20;;;;;;;2.65;1.60;;;14.20;99.90;;;;;;4879184;29;20037;-52
2022/04/25 09:17:56;;;;;;;1.67;1.30;;;14.50;99.90;;;;;;4876054;29;20399;-51
2022/04/25 09:20:25;;;;;;;1.58;1.38;;;15.00;99.90;;;;;;4880286;29;20053;-49
2022/04/25 09:22:52;;;;;;;1.67;1.27;;;15.60;99.90;;;;;;4880503;29;20044;-50
2022/04/25 09:25:19;;;;;;;1.88;1.30;;;16.10;99.90;;;;;;4878629;29;20102;-53
2022/04/25 09:28:08;;;;;;;2.72;1.60;;;15.70;99.90;;;;;;4878479;29;20738;-50
2022/04/25 09:30:35;;;;;;;3.80;1.55;;;15.80;99.90;;;;;;4880363;29;20101;-50
2022/04/25 09:33:02;;;;;;;2.13;1.40;;;15.70;99.90;;;;;;4877620;29;20045;-51
2022/04/25 09:35:35;;;;;;;1.30;1.20;;;15.80;99.90;;;;;;4873263;29;20055;-49
2022/04/25 09:38:04;;;;;;;1.58;1.42;;;15.80;99.90;;;;;;4881001;29;20045;-51
2022/04/25 09:40:36;;;;;;;1.63;1.30;;;15.40;99.90;;;;;;4880608;29;20053;-49
2022/04/25 09:43:14;;;;;;;2.30;1.50;;;15.00;99.90;;;;;;4876830;29;20045;-50
2022/04/25 09:45:43;;;;;;;3.35;1.23;;;14.80;99.90;;;;;;4880869;29;20402;-52
2022/04/25 09:48:18;;;;;;;4.00;1.58;;;14.80;99.90;;;;;;4880838;29;20113;-49
2022/04/25 09:51:18;;;;;;;3.45;1.48;;;14.90;99.90;;;;;;4875393;29;20451;-51
2022/04/25 09:53:52;;;;;;;1.77;1.48;;;14.80;99.90;;;;;;4853812;29;20136;-50
2022/04/25 09:56:20;;;;;;;4.07;1.70;;;14.70;99.90;;;;;;4880062;29;20048;-49
2022/04/25 09:59:08;;;;;;;1.65;1.50;;;14.80;99.90;;;;;;4877683;29;20105;-53
2022/04/25 10:01:37;;;;;;;2.33;1.50;;;15.10;99.90;;;;;;4878288;29;20048;-50
2022/04/25 10:04:24;;;;;;;3.25;1.50;;;15.70;99.90;;;;;;4877465;29;20052;-50
2022/04/25 10:06:52;;;;;;;3.25;1.63;;;16.00;99.90;;;;;;4877162;29;21185;-50
2022/04/25 10:09:21;;;;;;;2.25;1.48;;;16.30;99.90;;;;;;4879719;29;20054;-50
2022/04/25 10:11:49;;;;;;;1.60;1.50;;;16.40;99.90;;;;;;4877627;29;20053;-50
2022/04/25 10:14:16;;;;;;;1.80;1.40;;;16.40;99.90;;;;;;4879865;29;20105;-49
2022/04/25 10:16:45;;;;;;;2.00;1.45;;;16.20;99.90;;;;;;4874176;29;20045;-50
2022/04/25 10:19:18;;;;;;;2.83;1.60;;;16.00;99.90;;;;;;4880021;29;20053;-50
2022/04/25 10:21:46;;;;;;;1.92;1.55;;;15.70;99.90;;;;;;4879856;29;20045;-50
2022/04/25 10:24:18;;;;;;;2.55;2.10;;;15.50;99.90;;;;;;4872397;29;20102;-50
2022/04/25 10:26:46;;;;;;;3.47;2.30;;;15.40;99.90;;;;;;4880000;29;20044;-50
2022/04/25 10:29:19;;;;;;;4.80;2.40;;;15.20;99.90;;;;;;4879769;29;20470;-51
2022/04/25 10:31:48;;;;;;;5.10;2.53;;;15.20;99.90;;;;;;4878139;29;20607;-53
2022/04/25 10:34:16;;;;;;;5.63;2.72;;;15.20;99.90;;;;;;4878327;29;20416;-51
2022/04/25 10:36:47;;;;;;;5.32;2.42;;;15.00;99.90;;;;;;4880018;29;20065;-50
2022/04/25 10:39:21;;;;;;;2.78;2.30;;;15.00;99.90;;;;;;4879629;29;20459;-51
2022/04/25 10:44:45;;;;;;;5.20;3.25;;;14.80;99.90;;;;;;4879770;29;20049;-49
2022/04/25 10:47:17;;;;;;;9.82;3.00;;;14.70;99.90;;;;;;4879952;29;20049;-49
2022/04/25 10:49:46;;;;;;;4.43;2.92;;;14.70;99.90;;;;;;4879278;29;20076;-51
2022/04/25 10:52:31;;;;;;;3.65;2.42;;;14.70;99.90;;;;;;4873866;29;20059;-51
2022/04/25 10:55:31;;;;;;;3.78;2.53;;;14.50;99.90;;;;;;4879336;29;20049;-50
2022/04/25 10:58:05;;;;;;;3.15;2.40;;;14.40;99.90;;;;;;4879243;29;20451;-51
2022/04/25 11:00:39;;;;;;;3.67;2.65;;;14.80;99.90;;;;;;4875527;29;20065;-49
2022/04/25 11:03:12;;;;;;;3.22;2.63;;;15.30;99.90;;;;;;4878842;29;20048;-51
2022/04/25 11:05:44;;;;;;;6.00;3.10;;;15.70;99.90;;;;;;4878598;29;20418;-49
2022/04/25 11:08:19;;;;;;;5.55;3.67;;;15.90;99.90;;;;;;4877821;29;20048;-50
2022/04/25 11:10:51;;;;;;;6.10;3.30;;;16.00;99.90;;;;;;4878693;29;20076;-51
2022/04/25 11:13:22;;;;;;;3.65;2.90;;;16.20;99.90;;;;;;4879421;29;20040;-49
2022/04/25 11:15:54;;;;;;;3.53;2.70;;;16.30;99.90;;;;;;4879361;29;20494;-50
2022/04/25 11:18:35;;;;;;;3.35;2.78;;;16.20;99.90;;;;;;4873831;29;20402;-50
2022/04/25 11:21:04;;;;;;;2.95;2.60;;;16.30;99.90;;;;;;4878582;29;20061;-51
2022/04/25 11:23:47;;;;;;;2.70;2.50;;;16.90;99.90;;;;;;4879152;29;20045;-51
2022/04/25 11:26:26;;;;;;;4.07;2.70;;;17.10;98.50;;;;;;4879181;29;20486;-49
2022/04/25 11:28:58;;;;;;;3.33;2.55;;;17.10;97.20;;;;;;4874676;29;20057;-51
2022/04/25 11:31:26;;;;;;;2.50;2.13;;;17.50;99.30;;;;;;4877585;29;20041;-49
2022/04/25 11:33:55;;;;;;;4.60;2.78;;;17.60;96.40;;;;;;4876382;29;20049;-53
2022/04/25 11:36:22;;;;;;;5.40;2.88;;;17.40;97.30;;;;;;4875634;29;20059;-55
2022/04/25 11:41:41;;;;;;;3.47;2.47;;;16.40;96.20;;;;;;4859512;29;20443;-54
2022/04/25 11:44:08;;;;;;;6.03;2.70;;;16.30;96.60;;;;;;4878320;29;20037;-50
2022/04/25 11:46:36;;;;;;;;;;;16.00;97.20;;;;;;4876818;29;20040;-53
2022/04/25 11:49:05;;;;;;;2.55;2.15;;;16.00;99.30;;;;;;4878374;29;19979;-51
2022/04/25 11:51:34;;;;;;;4.20;2.35;;;16.30;95.70;;;;;;4877898;29;20414;-52
2022/04/25 11:54:06;;;;;;;2.80;2.13;;;16.50;95.50;;;;;;4876512;29;20447;-53
2022/04/25 11:56:34;;;;;;;9.38;2.72;;;16.80;96.30;;;;;;4877805;29;20101;-52
2022/04/25 11:59:12;;;;;;;2.53;2.33;;;17.00;95.90;;;;;;4878520;29;20085;-52
2022/04/25 12:01:43;;;;;;;4.30;2.25;;;17.70;95.40;;;;;;4874711;29;20121;-51
2022/04/25 12:04:33;;;;;;;5.80;2.75;;;17.70;93.70;;;;;;4876212;29;20049;-51
2022/04/25 12:07:05;;;;;;;5.45;2.70;;;18.30;94.80;;;;;;4878421;29;20044;-51
2022/04/25 12:18:18;;;;;;;3.92;3.00;;;17.80;94.30;;;;;;4877162;29;20132;-51
2022/04/25 12:21:08;;;;;;;3.35;2.50;;;17.70;95.00;;;;;;4875635;29;20113;-51
2022/04/25 12:23:45;;;;;;;3.92;2.70;;;17.50;94.10;;;;;;4859527;29;20045;-51
2022/04/25 12:26:27;;;;;;;4.18;2.72;;;17.40;95.00;;;;;;4869999;29;20495;-50
2022/04/25 12:29:00;;;;;;;5.63;3.22;;;17.20;94.80;;;;;;4874002;29;20520;-52
2022/04/25 12:31:28;;;;;;;3.67;2.67;;;17.30;93.30;;;;;;4877126;29;20044;-53
2022/04/25 12:34:03;;;;;;;3.70;3.10;;;17.60;93.00;;;;;;4877732;29;20084;-50
2022/04/25 12:36:30;;;;;;;3.50;2.92;;;18.10;92.30;;;;;;4877444;29;20172;-51
2022/04/25 12:39:03;;;;;;;3.72;2.70;;;18.50;92.60;;;;;;4874383;29;20072;-52
2022/04/25 12:41:32;;;;;;;2.97;2.60;;;18.80;92.40;;;;;;4876752;29;20455;-52
2022/04/25 12:44:11;;;;;;;4.10;3.08;;;19.30;90.80;;;;;;4878088;29;20523;-51
2022/04/25 12:46:45;;;;;;;3.83;3.13;;;19.50;92.10;;;;;;4874086;29;20041;-51
2022/04/25 12:49:31;;;;;;;5.93;3.53;;;19.40;93.00;;;;;;4877883;29;20414;-53
2022/04/25 12:52:00;;;;;;;8.25;3.42;;;19.30;91.10;;;;;;4877473;29;20093;-51
2022/04/25 12:54:41;;;;;;;5.20;3.63;;;18.50;92.40;;;;;;4876671;29;20079;-51
2022/04/25 12:57:20;;;;;;;3.72;2.72;;;17.70;93.50;;;;;;4877366;29;20068;-50
2022/04/25 12:59:53;;;;;;;3.65;3.17;;;17.10;93.90;;;;;;4877267;29;20049;-50
2022/04/25 13:02:32;;;;;;;4.40;3.47;;;16.70;95.10;;;;;;4877757;29;20045;-53
2022/04/25 13:05:04;;;;;;;4.57;3.50;;;16.40;95.60;;;;;;4873833;29;20053;-50
2022/04/25 13:07:43;;;;;;;4.07;3.40;;;16.20;96.70;;;;;;4859109;29;20568;-50
2022/04/25 13:10:15;;;;;;;4.28;3.28;;;16.20;96.80;;;;;;4858622;29;20153;-51
2022/04/25 13:12:44;;;;;;;5.50;3.40;;;16.30;98.50;;;;;;4871101;29;20049;-50
2022/04/25 13:15:13;;;;;;;4.22;3.60;;;16.40;99.00;;;;;;4877503;29;20575;-50
2022/04/25 13:17:41;;;;;;;9.27;3.40;;;16.50;98.40;;;;;;4877511;29;20053;-49
2022/04/25 13:20:11;;;;;;;4.05;3.45;;;16.60;97.40;;;;;;4876112;29;20052;-50
2022/04/25 13:22:38;;;;;;;4.50;3.50;;;16.80;96.30;;;;;;4877421;29;20041;-50
2022/04/25 13:25:06;;;;;;;10.82;3.60;;;17.00;96.20;;;;;;4877336;29;20450;-51
2022/04/25 13:27:37;;;;;;;4.60;3.58;;;17.10;96.80;;;;;;4877549;29;20498;-52
2022/04/25 13:30:05;;;;;;;4.05;3.60;;;17.10;98.10;;;;;;4873216;29;20123;-52
2022/04/25 13:32:33;;;;;;;5.05;3.60;;;17.20;97.30;;;;;;4877410;29;20116;-50
2022/04/25 13:35:00;;;;;;;5.22;4.15;;;17.40;96.30;;;;;;4877492;29;20674;-50
2022/04/25 13:37:30;;;;;;;7.00;3.63;;;17.60;97.80;;;;;;4877300;29;20124;-49
2022/04/25 13:40:01;;;;;;;4.13;3.42;;;17.70;96.30;;;;;;4873310;29;20394;-49
2022/04/25 13:42:29;;;;;;;5.35;3.42;;;17.60;96.00;;;;;;4842401;29;20045;-50
2022/04/25 13:44:55;;;;;;;;;;;17.50;95.10;;;;;;4858628;29;20068;-51